Time,TemperatureF,DewpointF,PressureIn,WindDirection,WindDirectionDegrees,WindSpeedMPH,WindSpeedGustMPH,Humidity,HourlyPrecipIn,Conditions,Clouds,dailyrainin,SoftwareType,DateUTC
2013-02-08 00:01:00,24.6,20.2,29.38,North,0,15.6,15.6,83,0.00,,---,0.00,VWS V13.01,2013-02-08 06:01:00,
2013-02-08 00:06:00,24.6,20.2,29.37,North,0,12.0,12.0,83,0.00,,---,0.00,VWS V13.01,2013-02-08 06:06:00,
2013-02-08 00:11:00,24.6,20.2,29.37,North,0,0.0,0.0,83,0.00,,---,0.00,VWS V13.01,2013-02-08 06:11:00,
2013-02-08 00:16:00,24.6,20.2,29.38,North,0,0.0,0.0,83,0.00,,---,0.00,VWS V13.01,2013-02-08 06:16:00,
2013-02-08 00:21:00,24.8,20.4,29.38,North,0,0.0,18.6,83,0.00,,---,0.00,VWS V13.01,2013-02-08 06:21:00,
2013-02-08 00:26:00,24.6,20.2,29.38,North,0,0.0,0.0,83,0.00,,---,0.00,VWS V13.01,2013-02-08 06:26:00,
2013-02-08 00:31:00,24.6,20.2,29.37,North,0,0.0,0.0,83,0.00,,---,0.00,VWS V13.01,2013-02-08 06:31:00,
2013-02-08 00:36:00,24.6,20.2,29.37,North,0,0.0,0.0,83,0.00,,---,0.00,VWS V13.01,2013-02-08 06:36:00,
2013-02-08 00:41:00,24.6,20.2,29.37,North,0,0.0,0.0,83,0.00,,---,0.00,VWS V13.01,2013-02-08 06:41:00,
2013-02-08 00:46:00,24.6,20.2,29.37,North,0,0.0,0.0,83,0.00,,---,0.00,VWS V13.01,2013-02-08 06:46:00,
2013-02-08 00:51:00,24.6,20.2,29.38,North,0,0.0,0.0,83,0.00,,---,0.00,VWS V13.01,2013-02-08 06:51:00,
2013-02-08 00:56:00,24.6,20.2,29.38,North,0,0.0,0.0,83,0.00,,---,0.00,VWS V13.01,2013-02-08 06:56:00,
2013-02-08 01:01:00,24.6,20.2,29.37,North,0,0.0,0.0,83,0.00,,---,0.00,VWS V13.01,2013-02-08 07:01:00,
2013-02-08 01:06:00,24.6,20.2,29.38,North,0,0.0,11.0,83,0.00,,---,0.00,VWS V13.01,2013-02-08 07:06:00,
2013-02-08 01:11:00,24.6,20.2,29.37,North,0,0.0,0.0,83,0.00,,---,0.00,VWS V13.01,2013-02-08 07:11:00,
2013-02-08 01:16:00,24.6,20.2,29.38,North,0,0.0,0.0,83,0.00,,---,0.00,VWS V13.01,2013-02-08 07:16:00,
2013-02-08 01:21:00,24.6,20.2,29.38,North,0,0.0,0.0,83,0.00,,---,0.00,VWS V13.01,2013-02-08 07:21:00,
2013-02-08 01:26:00,24.6,20.2,29.39,North,0,0.0,0.0,83,0.00,,---,0.00,VWS V13.01,2013-02-08 07:26:00,
2013-02-08 01:31:00,24.6,20.2,29.39,North,0,0.0,0.0,83,0.00,,---,0.00,VWS V13.01,2013-02-08 07:31:00,
2013-02-08 01:36:00,24.6,20.2,29.39,North,0,5.8,11.6,83,0.00,,---,0.00,VWS V13.01,2013-02-08 07:36:00,
2013-02-08 01:41:00,24.6,20.2,29.39,North,0,0.0,0.0,83,0.00,,---,0.00,VWS V13.01,2013-02-08 07:41:00,
2013-02-08 01:47:00,24.6,20.2,29.40,North,0,0.0,8.4,83,0.00,,---,0.00,VWS V13.01,2013-02-08 07:47:00,
2013-02-08 01:52:00,24.6,20.2,29.40,North,0,0.0,0.0,83,0.00,,---,0.00,VWS V13.01,2013-02-08 07:52:00,
2013-02-08 01:57:00,24.6,20.2,29.40,North,0,0.0,0.0,83,0.00,,---,0.00,VWS V13.01,2013-02-08 07:57:00,
2013-02-08 02:02:00,24.6,20.2,29.40,North,0,5.8,5.8,83,0.00,,---,0.00,VWS V13.01,2013-02-08 08:02:00,
2013-02-08 02:07:00,24.6,20.2,29.40,North,0,4.8,4.8,83,0.00,,---,0.00,VWS V13.01,2013-02-08 08:07:00,
2013-02-08 02:12:00,24.6,20.2,29.40,North,0,0.0,0.0,83,0.00,,---,0.00,VWS V13.01,2013-02-08 08:12:00,
2013-02-08 02:17:00,24.6,20.2,29.41,North,0,0.0,0.0,83,0.00,,---,0.00,VWS V13.01,2013-02-08 08:17:00,
2013-02-08 02:22:00,24.6,20.2,29.41,North,0,0.0,0.0,83,0.00,,---,0.00,VWS V13.01,2013-02-08 08:22:00,
2013-02-08 02:27:00,24.6,20.2,29.41,North,0,6.6,6.6,83,0.00,,---,0.00,VWS V13.01,2013-02-08 08:27:00,
2013-02-08 02:32:00,24.6,20.2,29.42,North,0,0.0,0.0,83,0.00,,---,0.00,VWS V13.01,2013-02-08 08:32:00,
2013-02-08 02:37:00,24.6,20.2,29.42,North,0,0.0,0.0,83,0.00,,---,0.00,VWS V13.01,2013-02-08 08:37:00,
2013-02-08 02:42:00,24.6,20.2,29.42,North,0,0.0,0.0,83,0.00,,---,0.00,VWS V13.01,2013-02-08 08:42:00,
2013-02-08 02:47:00,24.6,20.2,29.42,North,0,0.0,0.0,83,0.00,,---,0.00,VWS V13.01,2013-02-08 08:47:00,
2013-02-08 02:53:00,24.6,20.2,29.42,North,0,0.0,0.0,83,0.00,,---,0.00,VWS V13.01,2013-02-08 08:53:00,
2013-02-08 02:58:00,24.6,20.2,29.42,North,0,0.0,4.4,83,0.00,,---,0.00,VWS V13.01,2013-02-08 08:58:00,
2013-02-08 03:03:00,24.6,20.2,29.42,North,0,0.0,0.0,83,0.00,,---,0.00,VWS V13.01,2013-02-08 09:03:00,
2013-02-08 03:08:00,24.6,20.2,29.42,North,0,0.0,0.0,83,0.00,,---,0.00,VWS V13.01,2013-02-08 09:08:00,
2013-02-08 03:13:00,24.6,20.2,29.43,North,0,4.4,4.4,83,0.00,,---,0.00,VWS V13.01,2013-02-08 09:13:00,
2013-02-08 03:18:00,24.6,20.2,29.43,North,0,0.0,0.0,83,0.00,,---,0.00,VWS V13.01,2013-02-08 09:18:00,
2013-02-08 03:23:00,24.6,20.2,29.43,North,0,0.0,0.0,83,0.00,,---,0.00,VWS V13.01,2013-02-08 09:23:00,
2013-02-08 03:28:00,24.6,20.2,29.43,North,0,0.0,17.4,83,0.00,,---,0.00,VWS V13.01,2013-02-08 09:28:00,
2013-02-08 03:33:00,24.6,20.2,29.43,North,0,0.0,0.0,83,0.00,,---,0.00,VWS V13.01,2013-02-08 09:33:00,
2013-02-08 03:38:00,24.6,20.2,29.43,North,0,0.0,0.0,83,0.00,,---,0.00,VWS V13.01,2013-02-08 09:38:00,
2013-02-08 03:43:00,24.6,20.2,29.43,North,0,0.0,0.0,83,0.00,,---,0.00,VWS V13.01,2013-02-08 09:43:00,
2013-02-08 03:48:00,24.6,20.2,29.43,North,0,0.0,0.0,83,0.00,,---,0.00,VWS V13.01,2013-02-08 09:48:00,
2013-02-08 03:53:00,24.6,20.2,29.43,North,0,0.0,0.0,83,0.00,,---,0.00,VWS V13.01,2013-02-08 09:53:00,
2013-02-08 03:58:00,24.6,20.2,29.43,North,0,5.2,5.2,83,0.00,,---,0.00,VWS V13.01,2013-02-08 09:58:00,
2013-02-08 04:03:00,24.6,20.2,29.43,North,0,0.0,0.0,83,0.00,,---,0.00,VWS V13.01,2013-02-08 10:03:00,
2013-02-08 04:08:00,24.6,20.2,29.43,North,0,0.0,0.0,83,0.00,,---,0.00,VWS V13.01,2013-02-08 10:08:00,
2013-02-08 04:13:00,24.6,20.2,29.43,North,0,0.0,0.0,83,0.00,,---,0.00,VWS V13.01,2013-02-08 10:13:00,
2013-02-08 04:19:00,24.6,19.9,29.43,North,0,0.0,0.0,82,0.00,,---,0.00,VWS V13.01,2013-02-08 10:19:00,
2013-02-08 04:24:00,24.6,19.9,29.43,North,0,4.4,4.4,82,0.00,,---,0.00,VWS V13.01,2013-02-08 10:24:00,
2013-02-08 04:29:00,24.6,19.9,29.43,North,0,0.0,0.0,82,0.00,,---,0.00,VWS V13.01,2013-02-08 10:29:00,
2013-02-08 04:34:00,24.6,19.9,29.43,North,0,0.0,0.0,82,0.00,,---,0.00,VWS V13.01,2013-02-08 10:34:00,
2013-02-08 04:39:00,24.6,19.9,29.43,North,0,0.0,0.0,82,0.00,,---,0.00,VWS V13.01,2013-02-08 10:39:00,
2013-02-08 04:44:00,24.6,19.9,29.43,North,0,0.0,0.0,82,0.00,,---,0.00,VWS V13.01,2013-02-08 10:44:00,
2013-02-08 04:49:00,24.6,19.9,29.43,North,0,0.0,0.0,82,0.00,,---,0.00,VWS V13.01,2013-02-08 10:49:00,
2013-02-08 04:54:00,24.6,19.9,29.43,North,0,0.0,0.0,82,0.00,,---,0.00,VWS V13.01,2013-02-08 10:54:00,
2013-02-08 04:59:00,24.6,19.9,29.43,North,0,0.0,0.0,82,0.00,,---,0.00,VWS V13.01,2013-02-08 10:59:00,
2013-02-08 05:04:00,24.6,19.9,29.43,North,0,0.0,0.0,82,0.00,,---,0.00,VWS V13.01,2013-02-08 11:04:00,
2013-02-08 05:09:00,24.6,19.9,29.43,North,0,0.0,0.0,82,0.00,,---,0.00,VWS V13.01,2013-02-08 11:09:00,
2013-02-08 05:14:00,24.6,19.9,29.44,North,0,0.0,0.0,82,0.00,,---,0.00,VWS V13.01,2013-02-08 11:14:00,
2013-02-08 05:19:00,24.6,19.9,29.44,North,0,0.0,0.0,82,0.00,,---,0.00,VWS V13.01,2013-02-08 11:19:00,
2013-02-08 05:24:00,24.6,19.9,29.44,North,0,0.0,0.0,82,0.00,,---,0.00,VWS V13.01,2013-02-08 11:24:00,
2013-02-08 05:29:00,24.6,19.9,29.45,North,0,0.0,0.0,82,0.00,,---,0.00,VWS V13.01,2013-02-08 11:29:00,
2013-02-08 05:34:00,24.6,19.9,29.45,North,0,0.0,0.0,82,0.00,,---,0.00,VWS V13.01,2013-02-08 11:34:00,
2013-02-08 05:39:00,24.6,19.9,29.44,North,0,0.0,0.0,82,0.00,,---,0.00,VWS V13.01,2013-02-08 11:39:00,
2013-02-08 05:44:00,24.6,19.9,29.44,North,0,0.0,0.0,82,0.00,,---,0.00,VWS V13.01,2013-02-08 11:44:00,
2013-02-08 05:49:00,24.6,19.9,29.45,North,0,0.0,0.0,82,0.00,,---,0.00,VWS V13.01,2013-02-08 11:49:00,
2013-02-08 05:54:00,24.6,19.9,29.46,North,0,0.0,0.0,82,0.00,,---,0.00,VWS V13.01,2013-02-08 11:54:00,
2013-02-08 05:59:00,24.6,19.9,29.46,North,0,0.0,0.0,82,0.00,,---,0.00,VWS V13.01,2013-02-08 11:59:00,
2013-02-08 06:04:00,24.6,19.9,29.46,North,0,0.0,2.6,82,0.00,,---,0.00,VWS V13.01,2013-02-08 12:04:00,
2013-02-08 06:09:00,24.6,19.9,29.46,North,0,0.0,0.0,82,0.00,,---,0.00,VWS V13.01,2013-02-08 12:09:00,
2013-02-08 06:14:00,24.6,19.9,29.46,North,0,0.0,0.0,82,0.00,,---,0.00,VWS V13.01,2013-02-08 12:14:00,
2013-02-08 06:19:00,24.6,19.9,29.46,North,0,0.0,0.0,82,0.00,,---,0.00,VWS V13.01,2013-02-08 12:19:00,
2013-02-08 06:24:00,24.6,19.9,29.46,North,0,0.0,0.0,82,0.00,,---,0.00,VWS V13.01,2013-02-08 12:24:00,
2013-02-08 06:29:00,24.6,19.9,29.46,North,0,0.0,0.0,82,0.00,,---,0.00,VWS V13.01,2013-02-08 12:29:00,
2013-02-08 06:34:00,24.6,19.9,29.46,North,0,0.0,0.0,82,0.00,,---,0.00,VWS V13.01,2013-02-08 12:34:00,
2013-02-08 06:39:00,24.6,19.6,29.46,North,0,0.0,0.0,81,0.00,,---,0.00,VWS V13.01,2013-02-08 12:39:00,
2013-02-08 06:44:00,24.6,19.6,29.46,North,0,0.0,0.0,81,0.00,,---,0.00,VWS V13.01,2013-02-08 12:44:00,
2013-02-08 06:49:00,24.6,19.6,29.47,North,0,0.0,0.0,81,0.00,,---,0.00,VWS V13.01,2013-02-08 12:49:00,
2013-02-08 06:54:00,24.6,19.6,29.47,North,0,5.2,5.2,81,0.00,,---,0.00,VWS V13.01,2013-02-08 12:54:00,
2013-02-08 06:59:00,24.6,19.6,29.47,North,0,0.0,0.0,81,0.00,,---,0.00,VWS V13.01,2013-02-08 12:59:00,
2013-02-08 07:04:00,24.6,19.6,29.48,North,0,0.0,0.0,81,0.00,,---,0.00,VWS V13.01,2013-02-08 13:04:00,
2013-02-08 07:09:00,24.6,19.6,29.48,North,0,0.0,0.0,81,0.00,,---,0.00,VWS V13.01,2013-02-08 13:09:00,
2013-02-08 07:14:00,24.4,19.4,29.48,North,0,0.0,0.0,81,0.00,,---,0.00,VWS V13.01,2013-02-08 13:14:00,
2013-02-08 07:19:00,24.4,19.4,29.48,North,0,0.0,0.0,81,0.00,,---,0.00,VWS V13.01,2013-02-08 13:19:00,
2013-02-08 07:24:00,24.4,19.4,29.49,North,0,0.0,0.0,81,0.00,,---,0.00,VWS V13.01,2013-02-08 13:24:00,
2013-02-08 07:29:00,24.4,19.4,29.49,North,0,0.0,0.0,81,0.00,,---,0.00,VWS V13.01,2013-02-08 13:29:00,
2013-02-08 07:34:00,24.4,19.4,29.49,North,0,0.0,0.0,81,0.00,,---,0.00,VWS V13.01,2013-02-08 13:34:00,
2013-02-08 07:39:00,24.4,19.4,29.49,North,0,0.0,0.0,81,0.00,,---,0.00,VWS V13.01,2013-02-08 13:39:00,
2013-02-08 07:44:00,24.4,19.4,29.49,North,0,0.0,0.0,81,0.00,,---,0.00,VWS V13.01,2013-02-08 13:44:00,
2013-02-08 07:49:00,24.4,19.4,29.48,North,0,0.0,0.0,81,0.00,,---,0.00,VWS V13.01,2013-02-08 13:49:00,
2013-02-08 07:54:00,24.6,19.6,29.49,North,0,0.0,0.0,81,0.00,,---,0.00,VWS V13.01,2013-02-08 13:54:00,
2013-02-08 07:59:00,24.6,19.6,29.49,North,0,0.0,0.0,81,0.00,,---,0.00,VWS V13.01,2013-02-08 13:59:00,
2013-02-08 08:04:00,24.6,19.6,29.49,North,0,0.0,0.0,81,0.00,,---,0.00,VWS V13.01,2013-02-08 14:04:00,
2013-02-08 08:09:00,24.6,19.6,29.49,North,0,0.0,0.0,81,0.00,,---,0.00,VWS V13.01,2013-02-08 14:09:00,
2013-02-08 08:14:00,24.6,19.6,29.49,North,0,0.0,0.0,81,0.00,,---,0.00,VWS V13.01,2013-02-08 14:14:00,
2013-02-08 08:19:00,24.8,19.8,29.49,North,0,0.0,0.0,81,0.00,,---,0.00,VWS V13.01,2013-02-08 14:19:00,
2013-02-08 08:24:00,24.9,19.9,29.50,North,0,0.0,0.0,81,0.00,,---,0.00,VWS V13.01,2013-02-08 14:24:00,
2013-02-08 08:29:00,24.9,19.9,29.50,North,0,0.0,0.0,81,0.00,,---,0.00,VWS V13.01,2013-02-08 14:29:00,
2013-02-08 08:34:00,24.9,19.9,29.50,North,0,0.0,0.0,81,0.00,,---,0.00,VWS V13.01,2013-02-08 14:34:00,
2013-02-08 08:39:00,24.9,19.9,29.50,North,0,0.0,0.0,81,0.00,,---,0.00,VWS V13.01,2013-02-08 14:39:00,
2013-02-08 08:44:00,24.9,19.9,29.51,North,0,0.0,0.0,81,0.00,,---,0.00,VWS V13.01,2013-02-08 14:44:00,
2013-02-08 08:49:00,25.1,20.1,29.51,North,0,3.0,3.0,81,0.00,,---,0.00,VWS V13.01,2013-02-08 14:49:00,
2013-02-08 08:55:00,25.1,20.1,29.51,North,0,0.0,0.0,81,0.00,,---,0.00,VWS V13.01,2013-02-08 14:55:00,
2013-02-08 09:00:00,25.1,20.1,29.51,North,0,0.0,0.0,81,0.00,,---,0.00,VWS V13.01,2013-02-08 15:00:00,
2013-02-08 09:05:00,25.3,20.6,29.51,North,0,0.0,0.0,82,0.00,,---,0.00,VWS V13.01,2013-02-08 15:05:00,
2013-02-08 09:10:00,25.3,20.3,29.51,North,0,0.0,0.0,81,0.00,,---,0.00,VWS V13.01,2013-02-08 15:10:00,
2013-02-08 09:15:00,25.3,20.3,29.51,North,0,0.0,0.0,81,0.00,,---,0.00,VWS V13.01,2013-02-08 15:15:00,
2013-02-08 09:20:00,25.5,20.5,29.51,North,0,0.0,0.0,81,0.00,,---,0.00,VWS V13.01,2013-02-08 15:20:00,
2013-02-08 09:25:00,25.5,20.5,29.51,North,0,0.0,0.0,81,0.00,,---,0.00,VWS V13.01,2013-02-08 15:25:00,
2013-02-08 09:30:00,25.5,20.5,29.51,North,0,0.0,0.0,81,0.00,,---,0.00,VWS V13.01,2013-02-08 15:30:00,
2013-02-08 09:35:00,25.5,20.5,29.51,North,0,0.0,0.0,81,0.00,,---,0.00,VWS V13.01,2013-02-08 15:35:00,
2013-02-08 09:40:00,25.5,20.5,29.51,North,0,0.0,0.0,81,0.00,,---,0.00,VWS V13.01,2013-02-08 15:40:00,
2013-02-08 09:45:00,25.7,20.7,29.51,North,0,0.0,0.0,81,0.00,,---,0.00,VWS V13.01,2013-02-08 15:45:00,
2013-02-08 09:50:00,25.8,20.8,29.51,North,0,0.0,0.0,81,0.00,,---,0.00,VWS V13.01,2013-02-08 15:50:00,
2013-02-08 09:55:00,25.8,20.8,29.51,North,0,0.0,0.0,81,0.00,,---,0.00,VWS V13.01,2013-02-08 15:55:00,
2013-02-08 10:00:00,26.2,20.9,29.51,North,0,0.0,0.0,80,0.00,,---,0.00,VWS V13.01,2013-02-08 16:00:00,
2013-02-08 10:06:00,26.0,20.7,29.51,North,0,0.0,0.0,80,0.00,,---,0.00,VWS V13.01,2013-02-08 16:06:00,
2013-02-08 10:11:00,26.2,20.9,29.51,North,0,0.0,0.0,80,0.00,,---,0.00,VWS V13.01,2013-02-08 16:11:00,
2013-02-08 10:16:00,26.4,21.1,29.51,North,0,0.0,0.0,80,0.00,,---,0.00,VWS V13.01,2013-02-08 16:16:00,
2013-02-08 10:21:00,26.4,21.1,29.51,North,0,0.0,0.0,80,0.00,,---,0.00,VWS V13.01,2013-02-08 16:21:00,
2013-02-08 10:26:00,26.7,21.1,29.51,North,0,0.0,0.0,79,0.00,,---,0.00,VWS V13.01,2013-02-08 16:26:00,
2013-02-08 10:31:00,26.7,21.1,29.51,North,0,0.0,0.0,79,0.00,,---,0.00,VWS V13.01,2013-02-08 16:31:00,
2013-02-08 10:36:00,27.1,21.5,29.51,North,0,0.0,0.0,79,0.00,,---,0.00,VWS V13.01,2013-02-08 16:36:00,
2013-02-08 10:41:00,27.1,21.5,29.51,North,0,0.0,0.0,79,0.00,,---,0.00,VWS V13.01,2013-02-08 16:41:00,
2013-02-08 10:46:00,27.1,21.5,29.51,North,0,0.0,0.0,79,0.00,,---,0.00,VWS V13.01,2013-02-08 16:46:00,
2013-02-08 10:51:00,27.5,21.9,29.52,North,0,0.0,0.0,79,0.00,,---,0.00,VWS V13.01,2013-02-08 16:51:00,
2013-02-08 10:56:00,27.5,21.9,29.52,North,0,0.0,0.0,79,0.00,,---,0.00,VWS V13.01,2013-02-08 16:56:00,
2013-02-08 11:01:00,27.5,21.5,29.52,North,0,0.0,0.0,78,0.00,,---,0.00,VWS V13.01,2013-02-08 17:01:00,
2013-02-08 11:06:00,27.6,21.6,29.52,North,0,0.0,0.0,78,0.00,,---,0.00,VWS V13.01,2013-02-08 17:06:00,
2013-02-08 11:12:00,28.0,22.0,29.52,North,0,0.0,0.0,78,0.00,,---,0.00,VWS V13.01,2013-02-08 17:12:00,
2013-02-08 11:17:00,28.2,22.2,29.52,North,0,0.0,0.0,78,0.00,,---,0.00,VWS V13.01,2013-02-08 17:17:00,
2013-02-08 11:22:00,28.2,22.2,29.51,North,0,0.0,0.0,78,0.00,,---,0.00,VWS V13.01,2013-02-08 17:22:00,
2013-02-08 11:27:00,28.2,22.2,29.51,North,0,0.0,0.0,78,0.00,,---,0.00,VWS V13.01,2013-02-08 17:27:00,
2013-02-08 11:32:00,28.5,22.5,29.51,North,0,0.0,0.0,78,0.00,,---,0.00,VWS V13.01,2013-02-08 17:32:00,
2013-02-08 11:38:00,28.7,22.4,29.51,North,0,0.0,0.0,77,0.00,,---,0.00,VWS V13.01,2013-02-08 17:38:00,
2013-02-08 11:43:00,29.1,22.8,29.50,North,0,0.0,0.0,77,0.00,,---,0.00,VWS V13.01,2013-02-08 17:43:00,
2013-02-08 11:48:00,29.3,23.0,29.51,North,0,0.0,0.0,77,0.00,,---,0.00,VWS V13.01,2013-02-08 17:48:00,
2013-02-08 11:53:00,29.4,22.8,29.51,North,0,0.0,0.0,76,0.00,,---,0.00,VWS V13.01,2013-02-08 17:53:00,
2013-02-08 11:58:00,29.6,23.0,29.51,North,0,0.0,0.0,76,0.00,,---,0.00,VWS V13.01,2013-02-08 17:58:00,
2013-02-08 12:03:00,29.8,23.2,29.51,North,0,0.0,0.0,76,0.00,,---,0.00,VWS V13.01,2013-02-08 18:03:00,
2013-02-08 12:08:00,30.3,23.7,29.50,North,0,0.0,0.0,76,0.00,,---,0.00,VWS V13.01,2013-02-08 18:08:00,
2013-02-08 12:13:00,30.7,24.0,29.50,North,0,0.0,0.0,76,0.00,,---,0.00,VWS V13.01,2013-02-08 18:13:00,
2013-02-08 12:18:00,30.7,23.7,29.50,North,0,0.0,0.0,75,0.00,,---,0.00,VWS V13.01,2013-02-08 18:18:00,
2013-02-08 12:23:00,30.7,23.7,29.50,North,0,0.0,0.0,75,0.00,,---,0.00,VWS V13.01,2013-02-08 18:23:00,
2013-02-08 12:28:00,30.7,23.7,29.51,North,0,0.0,0.0,75,0.00,,---,0.00,VWS V13.01,2013-02-08 18:28:00,
2013-02-08 12:34:00,30.7,23.4,29.51,North,0,0.0,0.0,74,0.00,,---,0.00,VWS V13.01,2013-02-08 18:34:00,
2013-02-08 12:39:00,30.7,23.4,29.51,North,0,0.0,0.0,74,0.00,,---,0.00,VWS V13.01,2013-02-08 18:39:00,
2013-02-08 12:44:00,30.7,23.4,29.51,North,0,0.0,0.0,74,0.00,,---,0.00,VWS V13.01,2013-02-08 18:44:00,
2013-02-08 12:49:00,31.2,24.2,29.51,North,0,0.0,0.0,75,0.00,,---,0.00,VWS V13.01,2013-02-08 18:49:00,
2013-02-08 12:54:00,31.2,23.9,29.51,North,0,0.0,0.0,74,0.00,,---,0.00,VWS V13.01,2013-02-08 18:54:00,
2013-02-08 12:59:00,31.2,23.9,29.51,North,0,0.0,0.0,74,0.00,,---,0.00,VWS V13.01,2013-02-08 18:59:00,
2013-02-08 13:04:00,31.1,23.5,29.50,North,0,0.0,0.0,73,0.00,,---,0.00,VWS V13.01,2013-02-08 19:04:00,
2013-02-08 13:09:00,31.1,23.8,29.50,North,0,0.0,0.0,74,0.00,,---,0.00,VWS V13.01,2013-02-08 19:09:00,
2013-02-08 13:14:00,31.1,23.5,29.50,North,0,0.0,0.0,73,0.00,,---,0.00,VWS V13.01,2013-02-08 19:14:00,
2013-02-08 13:19:00,30.9,23.3,29.49,North,0,0.0,0.0,73,0.00,,---,0.00,VWS V13.01,2013-02-08 19:19:00,
2013-02-08 13:24:00,30.9,23.3,29.49,North,0,0.0,0.0,73,0.00,,---,0.00,VWS V13.01,2013-02-08 19:24:00,
2013-02-08 13:29:00,30.7,23.1,29.49,North,0,0.0,0.0,73,0.00,,---,0.00,VWS V13.01,2013-02-08 19:29:00,
2013-02-08 13:34:00,30.7,23.1,29.49,North,0,0.0,0.0,73,0.00,,---,0.00,VWS V13.01,2013-02-08 19:34:00,
2013-02-08 13:39:00,30.7,23.1,29.49,North,0,0.0,0.0,73,0.00,,---,0.00,VWS V13.01,2013-02-08 19:39:00,
2013-02-08 13:44:00,30.7,23.1,29.49,North,0,0.0,0.0,73,0.00,,---,0.00,VWS V13.01,2013-02-08 19:44:00,
2013-02-08 13:49:00,30.7,23.1,29.48,North,0,0.0,0.0,73,0.00,,---,0.00,VWS V13.01,2013-02-08 19:49:00,
2013-02-08 13:54:00,30.7,23.1,29.48,North,0,0.0,0.0,73,0.00,,---,0.00,VWS V13.01,2013-02-08 19:54:00,
2013-02-08 13:59:00,30.7,23.1,29.48,North,0,0.0,0.0,73,0.00,,---,0.00,VWS V13.01,2013-02-08 19:59:00,
2013-02-08 14:04:00,30.9,23.3,29.48,North,0,0.0,0.0,73,0.00,,---,0.00,VWS V13.01,2013-02-08 20:04:00,
2013-02-08 14:09:00,30.9,23.3,29.48,North,0,0.0,0.0,73,0.00,,---,0.00,VWS V13.01,2013-02-08 20:09:00,
2013-02-08 14:14:00,30.9,23.3,29.47,North,0,0.0,0.0,73,0.00,,---,0.00,VWS V13.01,2013-02-08 20:14:00,
2013-02-08 14:19:00,30.7,23.1,29.47,North,0,0.0,0.0,73,0.00,,---,0.00,VWS V13.01,2013-02-08 20:19:00,
2013-02-08 14:24:00,30.9,23.3,29.47,North,0,0.0,0.0,73,0.00,,---,0.00,VWS V13.01,2013-02-08 20:24:00,
2013-02-08 14:29:00,30.9,23.3,29.47,North,0,0.0,0.0,73,0.00,,---,0.00,VWS V13.01,2013-02-08 20:29:00,
2013-02-08 14:34:00,30.9,23.3,29.47,North,0,0.0,0.0,73,0.00,,---,0.00,VWS V13.01,2013-02-08 20:34:00,
2013-02-08 14:39:00,30.7,23.1,29.47,North,0,0.0,0.0,73,0.00,,---,0.00,VWS V13.01,2013-02-08 20:39:00,
2013-02-08 14:44:00,30.7,23.1,29.47,North,0,0.0,0.0,73,0.00,,---,0.00,VWS V13.01,2013-02-08 20:44:00,
2013-02-08 14:49:00,30.9,23.3,29.47,North,0,0.0,0.0,73,0.00,,---,0.00,VWS V13.01,2013-02-08 20:49:00,
2013-02-08 14:54:00,30.7,23.1,29.48,North,0,0.0,0.0,73,0.00,,---,0.00,VWS V13.01,2013-02-08 20:54:00,
2013-02-08 14:59:00,30.9,23.3,29.47,North,0,0.0,0.0,73,0.00,,---,0.00,VWS V13.01,2013-02-08 20:59:00,
2013-02-08 15:05:00,30.9,23.3,29.47,North,0,0.0,0.0,73,0.00,,---,0.00,VWS V13.01,2013-02-08 21:05:00,
2013-02-08 15:10:00,30.9,23.3,29.47,North,0,0.0,0.0,73,0.00,,---,0.00,VWS V13.01,2013-02-08 21:10:00,
2013-02-08 15:15:00,30.7,23.1,29.47,North,0,0.0,0.0,73,0.00,,---,0.00,VWS V13.01,2013-02-08 21:15:00,
2013-02-08 15:20:00,30.7,23.1,29.48,North,0,0.0,0.0,73,0.00,,---,0.00,VWS V13.01,2013-02-08 21:20:00,
2013-02-08 15:25:00,30.5,22.9,29.48,North,0,0.0,0.0,73,0.00,,---,0.00,VWS V13.01,2013-02-08 21:25:00,
2013-02-08 15:30:00,30.7,23.1,29.47,North,0,0.0,0.0,73,0.00,,---,0.00,VWS V13.01,2013-02-08 21:30:00,
2013-02-08 15:35:00,30.7,23.1,29.48,North,0,0.0,0.0,73,0.00,,---,0.00,VWS V13.01,2013-02-08 21:35:00,
2013-02-08 15:40:00,30.7,23.1,29.47,North,0,0.0,0.0,73,0.00,,---,0.00,VWS V13.01,2013-02-08 21:40:00,
2013-02-08 15:45:00,30.7,23.1,29.47,North,0,0.0,0.0,73,0.00,,---,0.00,VWS V13.01,2013-02-08 21:45:00,
2013-02-08 15:50:00,30.5,22.9,29.47,North,0,0.0,0.0,73,0.00,,---,0.00,VWS V13.01,2013-02-08 21:50:00,
2013-02-08 15:55:00,30.5,22.9,29.47,North,0,0.0,0.0,73,0.00,,---,0.00,VWS V13.01,2013-02-08 21:55:00,
2013-02-08 16:00:00,30.3,22.7,29.47,North,0,0.0,0.0,73,0.00,,---,0.00,VWS V13.01,2013-02-08 22:00:00,
2013-02-08 16:05:00,30.0,22.4,29.46,North,0,0.0,0.0,73,0.00,,---,0.00,VWS V13.01,2013-02-08 22:05:00,
2013-02-08 16:10:00,29.8,22.2,29.46,North,0,0.0,0.0,73,0.00,,---,0.00,VWS V13.01,2013-02-08 22:10:00,
2013-02-08 16:15:00,29.4,21.8,29.46,North,0,0.0,0.0,73,0.00,,---,0.00,VWS V13.01,2013-02-08 22:15:00,
2013-02-08 16:20:00,29.6,22.0,29.46,North,0,0.0,0.0,73,0.00,,---,0.00,VWS V13.01,2013-02-08 22:20:00,
2013-02-08 16:25:00,29.4,22.1,29.46,North,0,0.0,0.0,74,0.00,,---,0.00,VWS V13.01,2013-02-08 22:25:00,
2013-02-08 16:31:00,29.6,22.4,29.46,North,0,0.0,0.0,74,0.00,,---,0.00,VWS V13.01,2013-02-08 22:31:00,
2013-02-08 16:36:00,29.6,22.4,29.46,North,0,0.0,0.0,74,0.00,,---,0.00,VWS V13.01,2013-02-08 22:36:00,
2013-02-08 16:41:00,29.6,22.4,29.46,North,0,0.0,0.0,74,0.00,,---,0.00,VWS V13.01,2013-02-08 22:41:00,
2013-02-08 16:46:00,29.4,22.1,29.46,North,0,0.0,0.0,74,0.00,,---,0.00,VWS V13.01,2013-02-08 22:46:00,
2013-02-08 16:51:00,29.3,22.1,29.46,North,0,0.0,0.0,74,0.00,,---,0.00,VWS V13.01,2013-02-08 22:51:00,
2013-02-08 16:56:00,29.1,21.9,29.46,North,0,0.0,0.0,74,0.00,,---,0.00,VWS V13.01,2013-02-08 22:56:00,
2013-02-08 17:01:00,28.9,21.7,29.46,North,0,0.0,0.0,74,0.00,,---,0.00,VWS V13.01,2013-02-08 23:01:00,
2013-02-08 17:07:00,28.7,21.5,29.46,North,0,0.0,0.0,74,0.00,,---,0.00,VWS V13.01,2013-02-08 23:07:00,
2013-02-08 17:12:00,28.7,21.5,29.46,North,0,0.0,0.0,74,0.00,,---,0.00,VWS V13.01,2013-02-08 23:12:00,
2013-02-08 17:17:00,28.5,21.6,29.46,North,0,4.0,4.0,75,0.00,,---,0.00,VWS V13.01,2013-02-08 23:17:00,
2013-02-08 17:22:00,28.5,21.6,29.45,North,0,0.0,0.0,75,0.00,,---,0.00,VWS V13.01,2013-02-08 23:22:00,
2013-02-08 17:27:00,28.4,21.5,29.45,North,0,0.0,0.0,75,0.00,,---,0.00,VWS V13.01,2013-02-08 23:27:00,
2013-02-08 17:32:00,28.2,21.3,29.45,North,0,0.0,0.0,75,0.00,,---,0.00,VWS V13.01,2013-02-08 23:32:00,
2013-02-08 17:37:00,28.2,21.3,29.46,North,0,0.0,0.0,75,0.00,,---,0.00,VWS V13.01,2013-02-08 23:37:00,
2013-02-08 17:42:00,28.0,21.1,29.46,North,0,0.0,0.0,75,0.00,,---,0.00,VWS V13.01,2013-02-08 23:42:00,
2013-02-08 17:47:00,27.6,20.7,29.46,North,0,0.0,0.0,75,0.00,,---,0.00,VWS V13.01,2013-02-08 23:47:00,
2013-02-08 17:52:00,27.6,20.7,29.46,North,0,0.0,0.0,75,0.00,,---,0.00,VWS V13.01,2013-02-08 23:52:00,
2013-02-08 17:57:00,27.5,20.9,29.45,North,0,0.0,0.0,76,0.00,,---,0.00,VWS V13.01,2013-02-08 23:57:00,
2013-02-08 18:02:00,27.3,20.8,29.44,North,0,0.0,0.0,76,0.00,,---,0.00,VWS V13.01,2013-02-09 00:02:00,
2013-02-08 18:07:00,27.3,20.8,29.45,North,0,0.0,0.0,76,0.00,,---,0.00,VWS V13.01,2013-02-09 00:07:00,
2013-02-08 18:12:00,27.1,20.5,29.45,North,0,0.0,0.0,76,0.00,,---,0.00,VWS V13.01,2013-02-09 00:12:00,
2013-02-08 18:17:00,27.1,20.5,29.45,North,0,0.0,0.0,76,0.00,,---,0.00,VWS V13.01,2013-02-09 00:17:00,
2013-02-08 18:22:00,27.1,20.5,29.45,North,0,0.0,0.0,76,0.00,,---,0.00,VWS V13.01,2013-02-09 00:22:00,
2013-02-08 18:27:00,26.9,20.4,29.44,North,0,0.0,0.0,76,0.00,,---,0.00,VWS V13.01,2013-02-09 00:27:00,
2013-02-08 18:32:00,26.9,20.4,29.45,North,0,0.0,0.0,76,0.00,,---,0.00,VWS V13.01,2013-02-09 00:32:00,
2013-02-08 18:37:00,26.7,20.2,29.45,North,0,0.0,0.0,76,0.00,,---,0.00,VWS V13.01,2013-02-09 00:37:00,
2013-02-08 18:42:00,26.7,20.2,29.45,North,0,0.0,0.0,76,0.00,,---,0.00,VWS V13.01,2013-02-09 00:42:00,
2013-02-08 18:47:00,26.7,20.5,29.46,North,0,0.0,0.0,77,0.00,,---,0.00,VWS V13.01,2013-02-09 00:47:00,
2013-02-08 18:52:00,26.7,20.5,29.45,North,0,0.0,0.0,77,0.00,,---,0.00,VWS V13.01,2013-02-09 00:52:00,
2013-02-08 18:57:00,26.6,20.4,29.45,North,0,0.0,0.0,77,0.00,,---,0.00,VWS V13.01,2013-02-09 00:57:00,
2013-02-08 19:02:00,26.6,20.4,29.45,North,0,0.0,0.0,77,0.00,,---,0.00,VWS V13.01,2013-02-09 01:02:00,
2013-02-08 19:07:00,26.6,20.4,29.45,North,0,0.0,0.0,77,0.00,,---,0.00,VWS V13.01,2013-02-09 01:07:00,
2013-02-08 19:12:00,26.6,20.7,29.46,North,0,4.4,4.4,78,0.00,,---,0.00,VWS V13.01,2013-02-09 01:12:00,
2013-02-08 19:17:00,26.6,20.7,29.45,North,0,0.0,0.0,78,0.00,,---,0.00,VWS V13.01,2013-02-09 01:17:00,
2013-02-08 19:22:00,26.4,20.5,29.45,North,0,13.4,13.4,78,0.00,,---,0.00,VWS V13.01,2013-02-09 01:22:00,
2013-02-08 19:27:00,26.4,20.5,29.44,North,0,0.0,12.0,78,0.00,,---,0.00,VWS V13.01,2013-02-09 01:27:00,
2013-02-08 19:32:00,26.4,20.5,29.44,North,0,5.8,5.8,78,0.00,,---,0.00,VWS V13.01,2013-02-09 01:32:00,
2013-02-08 19:37:00,26.4,20.5,29.45,North,0,0.0,0.0,78,0.00,,---,0.00,VWS V13.01,2013-02-09 01:37:00,
2013-02-08 19:42:00,26.4,20.5,29.45,North,0,8.0,16.4,78,0.00,,---,0.00,VWS V13.01,2013-02-09 01:42:00,
2013-02-08 19:47:00,26.4,20.5,29.45,North,0,0.0,0.0,78,0.00,,---,0.00,VWS V13.01,2013-02-09 01:47:00,
2013-02-08 19:52:00,26.4,20.5,29.44,North,0,0.0,0.0,78,0.00,,---,0.00,VWS V13.01,2013-02-09 01:52:00,
2013-02-08 19:57:00,26.4,20.5,29.44,North,0,0.0,0.0,78,0.00,,---,0.00,VWS V13.01,2013-02-09 01:57:00,
2013-02-08 20:02:00,26.4,20.5,29.44,North,0,0.0,0.0,78,0.00,,---,0.00,VWS V13.01,2013-02-09 02:02:00,
2013-02-08 20:07:00,26.4,20.5,29.44,North,0,0.0,0.0,78,0.00,,---,0.00,VWS V13.01,2013-02-09 02:07:00,
2013-02-08 20:12:00,26.4,20.5,29.44,North,0,0.0,0.0,78,0.00,,---,0.00,VWS V13.01,2013-02-09 02:12:00,
2013-02-08 20:17:00,26.4,20.8,29.44,North,0,0.0,0.0,79,0.00,,---,0.00,VWS V13.01,2013-02-09 02:17:00,
2013-02-08 20:22:00,26.4,20.8,29.44,North,0,0.0,0.0,79,0.00,,---,0.00,VWS V13.01,2013-02-09 02:22:00,
2013-02-08 20:27:00,26.4,20.8,29.43,North,0,0.0,0.0,79,0.00,,---,0.00,VWS V13.01,2013-02-09 02:27:00,
2013-02-08 20:32:00,26.4,20.8,29.43,North,0,0.0,0.0,79,0.00,,---,0.00,VWS V13.01,2013-02-09 02:32:00,
2013-02-08 20:37:00,26.4,20.8,29.43,North,0,0.0,0.0,79,0.00,,---,0.00,VWS V13.01,2013-02-09 02:37:00,
2013-02-08 20:42:00,26.4,20.8,29.42,North,0,0.0,9.2,79,0.00,,---,0.00,VWS V13.01,2013-02-09 02:42:00,
2013-02-08 20:47:00,26.4,20.8,29.42,North,0,0.0,0.0,79,0.00,,---,0.00,VWS V13.01,2013-02-09 02:47:00,
2013-02-08 20:52:00,26.4,20.8,29.42,North,0,0.0,0.0,79,0.00,,---,0.00,VWS V13.01,2013-02-09 02:52:00,
2013-02-08 20:57:00,26.4,20.8,29.43,North,0,0.0,11.6,79,0.00,,---,0.00,VWS V13.01,2013-02-09 02:57:00,
2013-02-08 21:02:00,26.4,20.8,29.43,North,0,0.0,0.0,79,0.00,,---,0.00,VWS V13.01,2013-02-09 03:02:00,
2013-02-08 21:07:00,26.4,20.8,29.43,North,0,0.0,0.0,79,0.00,,---,0.00,VWS V13.01,2013-02-09 03:07:00,
2013-02-08 21:12:00,26.2,20.6,29.43,North,0,0.0,0.0,79,0.00,,---,0.00,VWS V13.01,2013-02-09 03:12:00,
2013-02-08 21:17:00,26.2,20.6,29.43,North,0,0.0,0.0,79,0.00,,---,0.00,VWS V13.01,2013-02-09 03:17:00,
2013-02-08 21:22:00,26.2,20.6,29.43,North,0,0.0,0.0,79,0.00,,---,0.00,VWS V13.01,2013-02-09 03:22:00,
2013-02-08 21:27:00,26.2,20.6,29.43,North,0,0.0,0.0,79,0.00,,---,0.00,VWS V13.01,2013-02-09 03:27:00,
2013-02-08 21:32:00,26.2,20.6,29.43,North,0,0.0,0.0,79,0.00,,---,0.00,VWS V13.01,2013-02-09 03:32:00,
2013-02-08 21:37:00,26.2,20.9,29.42,North,0,0.0,0.0,80,0.00,,---,0.00,VWS V13.01,2013-02-09 03:37:00,
2013-02-08 21:42:00,26.2,20.9,29.42,North,0,0.0,6.6,80,0.00,,---,0.00,VWS V13.01,2013-02-09 03:42:00,
2013-02-08 21:47:00,26.2,20.9,29.43,North,0,3.4,3.4,80,0.00,,---,0.00,VWS V13.01,2013-02-09 03:47:00,
2013-02-08 21:52:00,26.2,20.9,29.42,North,0,12.4,12.4,80,0.00,,---,0.00,VWS V13.01,2013-02-09 03:52:00,
2013-02-08 21:57:00,26.2,20.9,29.42,North,0,10.6,10.6,80,0.00,,---,0.00,VWS V13.01,2013-02-09 03:57:00,
2013-02-08 22:02:00,26.2,20.9,29.42,North,0,1.2,1.2,80,0.00,,---,0.00,VWS V13.01,2013-02-09 04:02:00,
2013-02-08 22:07:00,26.0,20.7,29.42,North,0,0.0,0.0,80,0.00,,---,0.00,VWS V13.01,2013-02-09 04:07:00,
2013-02-08 22:12:00,25.8,20.5,29.43,North,0,0.0,0.0,80,0.00,,---,0.00,VWS V13.01,2013-02-09 04:12:00,
2013-02-08 22:17:00,25.8,20.5,29.42,North,0,0.0,0.0,80,0.00,,---,0.00,VWS V13.01,2013-02-09 04:17:00,
2013-02-08 22:22:00,25.8,20.5,29.42,North,0,0.0,0.0,80,0.00,,---,0.00,VWS V13.01,2013-02-09 04:22:00,
2013-02-08 22:27:00,25.8,20.8,29.42,North,0,0.0,0.0,81,0.00,,---,0.00,VWS V13.01,2013-02-09 04:27:00,
2013-02-08 22:33:00,25.8,20.8,29.42,North,0,0.0,0.0,81,0.00,,---,0.00,VWS V13.01,2013-02-09 04:33:00,
2013-02-08 22:38:00,25.8,20.8,29.42,North,0,2.2,2.2,81,0.00,,---,0.00,VWS V13.01,2013-02-09 04:38:00,
2013-02-08 22:43:00,25.8,20.8,29.42,North,0,14.2,14.2,81,0.00,,---,0.00,VWS V13.01,2013-02-09 04:43:00,
2013-02-08 22:48:00,25.8,20.8,29.42,North,0,0.0,0.0,81,0.00,,---,0.00,VWS V13.01,2013-02-09 04:48:00,
2013-02-08 22:53:00,25.8,20.8,29.42,North,0,0.0,14.2,81,0.00,,---,0.00,VWS V13.01,2013-02-09 04:53:00,
2013-02-08 22:58:00,25.8,20.8,29.42,North,0,0.0,0.0,81,0.00,,---,0.00,VWS V13.01,2013-02-09 04:58:00,
2013-02-08 23:00:00,25.8,20.8,29.41,North,0,0.0,0.0,81,0.00,,---,0.00,VWS V13.01,2013-02-09 05:00:00,
2013-02-08 23:01:00,25.8,20.8,29.42,North,0,0.0,0.0,81,0.00,,---,0.00,VWS V13.01,2013-02-09 05:01:00,
2013-02-08 23:05:00,25.8,20.8,29.41,North,0,16.0,16.0,81,0.00,,---,0.00,VWS V13.01,2013-02-09 05:05:00,
2013-02-08 23:06:00,25.8,20.8,29.41,North,0,0.0,16.0,81,0.00,,---,0.00,VWS V13.01,2013-02-09 05:06:00,
2013-02-08 23:11:00,25.8,20.8,29.41,North,0,0.0,0.0,81,0.00,,---,0.00,VWS V13.01,2013-02-09 05:11:00,
2013-02-08 23:16:00,25.8,20.8,29.42,North,0,15.6,15.6,81,0.00,,---,0.00,VWS V13.01,2013-02-09 05:16:00,
2013-02-08 23:21:00,25.8,20.8,29.42,North,0,0.0,0.0,81,0.00,,---,0.00,VWS V13.01,2013-02-09 05:21:00,
2013-02-08 23:26:00,25.8,20.8,29.42,North,0,0.0,0.0,81,0.00,,---,0.00,VWS V13.01,2013-02-09 05:26:00,
2013-02-08 23:31:00,25.8,20.8,29.42,North,0,0.0,0.0,81,0.00,,---,0.00,VWS V13.01,2013-02-09 05:31:00,
2013-02-08 23:36:00,26.0,21.0,29.42,North,0,5.8,5.8,81,0.00,,---,0.00,VWS V13.01,2013-02-09 05:36:00,
2013-02-08 23:41:00,26.0,21.0,29.41,North,0,0.0,0.0,81,0.00,,---,0.00,VWS V13.01,2013-02-09 05:41:00,
2013-02-08 23:46:00,26.0,21.0,29.41,North,0,3.4,3.4,81,0.00,,---,0.00,VWS V13.01,2013-02-09 05:46:00,
2013-02-08 23:51:00,26.2,21.5,29.41,North,0,0.0,8.8,82,0.00,,---,0.00,VWS V13.01,2013-02-09 05:51:00,
2013-02-08 23:56:00,26.2,21.5,29.41,North,0,0.0,0.0,82,0.00,,---,0.00,VWS V13.01,2013-02-09 05:56:00,